createdAt,value
2023-01-11T00:00:19.214Z,2.40
2023-01-11T00:05:22.035Z,2.67
2023-01-11T00:10:24.940Z,2.70
2023-01-11T00:15:29.332Z,2.70
2023-01-11T00:20:32.127Z,2.47
2023-01-11T00:25:35.082Z,2.53
2023-01-11T00:30:39.564Z,2.50
2023-01-11T00:35:42.512Z,3.05
2023-01-11T00:40:45.262Z,2.75
2023-01-11T00:46:15.167Z,2.90
2023-01-11T00:51:18.047Z,2.80
2023-01-11T00:56:20.856Z,2.90
2023-01-11T01:01:25.094Z,2.45
2023-01-11T01:06:28.083Z,2.40
2023-01-11T01:11:30.918Z,2.50
2023-01-11T01:16:41.349Z,2.30
2023-01-11T01:21:44.158Z,2.58
2023-01-11T01:26:46.988Z,2.50
2023-01-11T01:31:51.590Z,2.20
2023-01-11T01:36:55.806Z,2.30
2023-01-11T01:41:59.579Z,2.10
2023-01-11T01:47:08.129Z,2.00
2023-01-11T01:57:20.041Z,1.95
2023-01-11T02:02:27.837Z,1.90
2023-01-11T02:07:34.747Z,1.70
2023-01-11T02:12:41.774Z,1.63
2023-01-11T02:17:51.136Z,1.90
2023-01-11T02:23:32.542Z,1.65
2023-01-11T02:28:42.983Z,1.50
2023-01-11T02:33:55.410Z,1.45
2023-01-11T02:39:08.063Z,1.33
2023-01-11T02:44:33.484Z,1.35
2023-01-11T02:49:44.726Z,1.40
2023-01-11T02:54:54.259Z,1.55
2023-01-11T02:59:59.876Z,1.10
2023-01-11T03:05:02.877Z,1.92
2023-01-11T03:10:21.998Z,2.10
2023-01-11T03:15:50.902Z,2.13
2023-01-11T03:21:03.494Z,1.70
2023-01-11T03:26:17.099Z,2.03
2023-01-11T03:31:27.287Z,2.00
2023-01-11T03:42:03.777Z,1.65
2023-01-11T03:47:11.476Z,1.90
2023-01-11T03:52:17.700Z,2.43
2023-01-11T03:57:24.369Z,2.00
2023-01-11T04:02:36.031Z,1.70
2023-01-11T04:07:39.365Z,2.00
2023-01-11T04:12:42.190Z,2.13
2023-01-11T04:17:46.360Z,2.58
2023-01-11T04:22:49.123Z,2.40
2023-01-11T04:27:52.024Z,2.03
2023-01-11T04:32:58.719Z,2.55
2023-01-11T04:38:01.570Z,1.65
2023-01-11T04:43:04.753Z,2.00
2023-01-11T04:48:09.104Z,2.20
2023-01-11T04:53:11.851Z,1.80
2023-01-11T04:58:14.594Z,2.13
2023-01-11T05:03:18.941Z,2.08
2023-01-11T05:08:21.779Z,2.00
2023-01-11T05:13:41.448Z,1.60
2023-01-11T05:18:47.430Z,1.33
2023-01-11T05:23:50.833Z,1.55
2023-01-11T05:28:54.129Z,1.90
2023-01-11T05:33:59.679Z,1.65
2023-01-11T05:39:03.290Z,1.35
2023-01-11T05:44:24.541Z,1.70
2023-01-11T05:49:28.690Z,1.67
2023-01-11T05:54:31.751Z,1.15
2023-01-11T05:59:34.499Z,1.25
2023-01-11T06:04:38.767Z,1.20
2023-01-11T06:09:41.913Z,1.15
2023-01-11T06:14:44.709Z,1.10
2023-01-11T06:19:48.908Z,1.30
2023-01-11T06:24:51.662Z,1.25
2023-01-11T06:29:54.470Z,1.70
2023-01-11T06:34:58.571Z,2.17
2023-01-11T06:40:01.457Z,1.33
2023-01-11T06:45:04.868Z,1.20
2023-01-11T06:50:10.835Z,1.85
2023-01-11T06:55:13.585Z,1.35
2023-01-11T07:00:17.213Z,1.55
2023-01-11T07:05:21.500Z,1.90
2023-01-11T07:10:24.340Z,2.17
2023-01-11T07:15:27.208Z,2.20
2023-01-11T07:20:31.380Z,2.75
2023-01-11T07:25:34.495Z,3.00
2023-01-11T07:30:55.953Z,1.85
2023-01-11T07:36:05.305Z,2.50
2023-01-11T07:41:22.115Z,3.20
2023-01-11T07:46:24.997Z,2.78
2023-01-11T07:51:32.054Z,2.85
2023-01-11T07:56:34.781Z,2.80
2023-01-11T08:01:37.967Z,2.67
2023-01-11T08:06:43.063Z,2.80
2023-01-11T08:12:03.272Z,2.90
2023-01-11T08:17:06.419Z,3.20
2023-01-11T08:22:10.685Z,3.35
2023-01-11T08:27:13.530Z,3.05
2023-01-11T08:32:16.413Z,3.78
2023-01-11T08:37:20.618Z,4.43
2023-01-11T08:42:23.426Z,3.90
2023-01-11T08:47:26.259Z,4.60
2023-01-11T08:52:30.383Z,3.67
2023-01-11T08:57:33.176Z,3.42
2023-01-11T09:02:36.140Z,2.88
2023-01-11T09:07:40.306Z,3.55
2023-01-11T09:12:43.137Z,4.95
2023-01-11T09:17:47.420Z,6.13
2023-01-11T09:22:53.410Z,3.63
2023-01-11T09:27:56.261Z,3.30
2023-01-11T09:32:59.038Z,9.25
2023-01-11T09:38:03.223Z,2.65
2023-01-11T09:43:08.716Z,2.53
2023-01-11T09:48:26.748Z,4.15
2023-01-11T09:53:36.184Z,1.90
2023-01-11T09:58:50.984Z,2.35
2023-01-11T10:04:28.525Z,1.42
2023-01-11T10:18:27.482Z,1.70
2023-01-11T10:20:43.790Z,1.40
2023-01-11T10:25:51.670Z,1.63
2023-01-11T10:31:11.200Z,1.73
2023-01-11T10:36:39.595Z,1.40
2023-01-11T10:41:54.985Z,1.83
2023-01-11T10:47:00.195Z,3.65
2023-01-11T10:52:15.698Z,2.83
2023-01-11T10:57:39.850Z,1.45
2023-01-11T11:03:23.176Z,1.20
2023-01-11T11:08:32.296Z,1.48
2023-01-11T11:13:48.076Z,1.77
2023-01-11T11:18:55.058Z,8.65
2023-01-11T11:24:01.751Z,1.70
2023-01-11T11:29:11.095Z,2.20
2023-01-11T11:34:19.951Z,2.40
2023-01-11T11:39:27.299Z,2.20
2023-01-11T11:44:31.431Z,2.97
2023-01-11T11:49:36.195Z,2.45
2023-01-11T11:54:43.219Z,1.50
2023-01-11T11:59:50.361Z,2.60
2023-01-11T12:10:34.874Z,2.17
2023-01-11T12:15:39.317Z,1.73
2023-01-11T12:20:44.740Z,2.33
2023-01-11T12:26:19.820Z,2.60
2023-01-11T12:31:31.797Z,2.83
2023-01-11T12:36:40.814Z,1.90
2023-01-11T12:42:03.612Z,2.60
2023-01-11T12:47:21.480Z,2.28
2023-01-11T12:52:59.119Z,2.60
2023-01-11T12:58:08.870Z,2.97
2023-01-11T13:03:57.177Z,3.40
2023-01-11T13:09:07.191Z,3.22
2023-01-11T13:14:34.797Z,3.15
2023-01-11T13:19:47.835Z,2.85
2023-01-11T13:24:52.208Z,2.78
2023-01-11T13:29:59.302Z,2.45
2023-01-11T13:35:08.025Z,2.55
2023-01-11T13:40:19.930Z,3.08
2023-01-11T13:45:27.351Z,3.38
2023-01-11T13:50:35.241Z,2.70
2023-01-11T13:55:44.837Z,2.67
2023-01-11T14:00:54.765Z,2.83
2023-01-11T14:06:17.978Z,2.60
2023-01-11T14:11:27.448Z,2.55
2023-01-11T14:16:40.171Z,3.60
2023-01-11T14:21:58.551Z,1.80
2023-01-11T14:27:20.953Z,1.85
2023-01-11T14:32:45.556Z,1.98
2023-01-11T14:38:15.821Z,2.92
2023-01-11T14:43:33.044Z,3.42
2023-01-11T14:48:47.360Z,2.10
2023-01-11T14:53:56.150Z,3.15
2023-01-11T14:59:06.257Z,2.88
2023-01-11T15:04:21.979Z,3.30
2023-01-11T15:09:45.557Z,3.60
2023-01-11T15:14:50.229Z,2.83
2023-01-11T15:19:53.354Z,3.25
2023-01-11T15:25:01.083Z,2.83
2023-01-11T15:30:05.782Z,3.60
2023-01-11T15:35:33.736Z,3.95
2023-01-11T15:40:41.634Z,3.42
2023-01-11T15:46:29.251Z,3.08
2023-01-11T15:51:56.794Z,3.78
2023-01-11T15:57:15.943Z,3.78
2023-01-11T16:02:52.194Z,3.50
2023-01-11T16:08:04.585Z,2.88
2023-01-11T16:13:29.560Z,2.70
2023-01-11T16:18:38.308Z,3.67
2023-01-11T16:23:41.977Z,4.43
2023-01-11T16:28:54.112Z,3.05
2023-01-11T16:34:07.490Z,3.42
2023-01-11T16:39:14.353Z,5.55
2023-01-11T16:44:27.871Z,3.58
2023-01-11T16:49:31.091Z,3.45
2023-01-11T16:54:34.398Z,4.70
2023-01-11T16:59:38.649Z,5.28
2023-01-11T17:04:54.126Z,4.90
2023-01-11T17:10:17.468Z,5.75
2023-01-11T17:15:28.019Z,3.80
2023-01-11T17:20:31.864Z,5.85
2023-01-11T17:25:44.457Z,9.35
2023-01-11T17:30:53.116Z,4.10
2023-01-11T17:35:56.828Z,4.78
2023-01-11T17:41:01.283Z,4.35
2023-01-11T17:46:06.620Z,3.97
2023-01-11T17:51:09.792Z,4.30
2023-01-11T17:56:39.095Z,4.32
2023-01-11T18:01:48.041Z,4.93
2023-01-11T18:06:53.832Z,4.60
2023-01-11T18:12:09.009Z,5.38
2023-01-11T18:17:31.869Z,4.40
2023-01-11T18:22:37.337Z,3.70
2023-01-11T18:27:47.414Z,4.45
2023-01-11T18:32:50.362Z,4.32
2023-01-11T18:37:53.162Z,3.92
2023-01-11T18:42:57.389Z,3.88
2023-01-11T18:48:00.315Z,4.22
2023-01-11T18:53:03.371Z,6.05
2023-01-11T18:58:09.750Z,4.55
2023-01-11T19:08:15.767Z,4.38
2023-01-11T19:13:21.539Z,4.32
2023-01-11T19:18:24.643Z,6.32
2023-01-11T19:23:27.598Z,8.20
2023-01-11T19:28:32.033Z,5.28
2023-01-11T19:33:34.824Z,6.90
2023-01-11T19:38:42.121Z,4.28
2023-01-11T19:43:47.098Z,5.07
2023-01-11T19:48:50.052Z,4.55
2023-01-11T19:53:52.874Z,4.05
2023-01-11T19:58:57.025Z,4.10
2023-01-11T20:03:59.973Z,3.83
2023-01-11T20:09:03.994Z,3.50
2023-01-11T20:14:09.184Z,4.15
2023-01-11T20:19:13.244Z,4.13
2023-01-11T20:24:16.598Z,3.88
2023-01-11T20:29:21.072Z,4.10
2023-01-11T20:34:23.971Z,3.95
2023-01-11T20:39:27.586Z,4.60
2023-01-11T20:44:32.323Z,4.00
2023-01-11T20:49:37.579Z,4.25
2023-01-11T20:54:40.408Z,3.95
2023-01-11T20:59:44.661Z,6.07
2023-01-11T21:04:47.679Z,4.30
2023-01-11T21:09:50.495Z,4.68
2023-01-11T21:14:54.673Z,5.32
2023-01-11T21:19:57.483Z,5.20
2023-01-11T21:25:00.235Z,4.72
2023-01-11T21:30:05.115Z,3.92
2023-01-11T21:35:08.501Z,4.18
2023-01-11T21:40:14.037Z,4.15
2023-01-11T21:45:18.355Z,4.45
2023-01-11T21:50:21.118Z,4.05
2023-01-11T21:55:23.965Z,3.42
2023-01-11T22:00:29.662Z,4.22
2023-01-11T22:05:33.182Z,3.17
2023-01-11T22:10:36.418Z,4.28
2023-01-11T22:15:48.746Z,3.85
2023-01-11T22:20:58.043Z,3.95
2023-01-11T22:26:09.261Z,3.90
2023-01-11T22:31:15.744Z,4.63
2023-01-11T22:36:19.424Z,3.90
2023-01-11T22:41:39.555Z,3.30
2023-01-11T22:46:46.732Z,3.00
2023-01-11T22:51:49.920Z,2.55
2023-01-11T22:56:57.004Z,3.58
2023-01-11T23:02:01.293Z,3.22
2023-01-11T23:07:08.708Z,3.42
2023-01-11T23:12:33.754Z,3.30
2023-01-11T23:17:38.379Z,2.40
2023-01-11T23:22:47.076Z,2.60
2023-01-11T23:27:49.919Z,2.40
2023-01-11T23:32:59.302Z,2.38
2023-01-11T23:38:02.421Z,2.70
2023-01-11T23:43:05.474Z,2.45
2023-01-11T23:48:13.054Z,2.58
2023-01-11T23:53:17.333Z,2.70
2023-01-11T23:58:22.506Z,3.13
